sensor_id;sensor_type;location;lat;lon;timestamp;pressure;altitude;pressure_sealevel;temperature;humidity
38466;BME280;24244;51.950;5.902;2022-09-03T00:02:15;101069.38;;;19.47;43.81
38466;BME280;24244;51.950;5.902;2022-09-03T00:04:52;101074.41;;;19.44;43.83
38466;BME280;24244;51.950;5.902;2022-09-03T00:07:27;101075.69;;;19.41;43.96
38466;BME280;24244;51.950;5.902;2022-09-03T00:09:59;101074.88;;;19.41;43.96
38466;BME280;24244;51.950;5.902;2022-09-03T00:12:27;101078.38;;;19.41;44.16
38466;BME280;24244;51.950;5.902;2022-09-03T00:15:00;101069.97;;;19.38;44.20
38466;BME280;24244;51.950;5.902;2022-09-03T00:17:32;101068.31;;;19.37;44.25
38466;BME280;24244;51.950;5.902;2022-09-03T00:20:02;101071.00;;;19.37;44.33
38466;BME280;24244;51.950;5.902;2022-09-03T00:22:32;101073.94;;;19.35;44.15
38466;BME280;24244;51.950;5.902;2022-09-03T00:25:03;101073.94;;;19.35;44.33
38466;BME280;24244;51.950;5.902;2022-09-03T00:27:31;101070.41;;;19.35;44.18
38466;BME280;24244;51.950;5.902;2022-09-03T00:30:00;101073.34;;;19.33;44.33
38466;BME280;24244;51.950;5.902;2022-09-03T00:32:38;101066.56;;;19.31;44.55
38466;BME280;24244;51.950;5.902;2022-09-03T00:35:08;101072.19;;;19.29;44.32
38466;BME280;24244;51.950;5.902;2022-09-03T00:37:35;101078.88;;;19.27;44.45
38466;BME280;24244;51.950;5.902;2022-09-03T00:40:01;101074.19;;;19.22;44.62
38466;BME280;24244;51.950;5.902;2022-09-03T00:42:38;101076.28;;;19.20;44.71
38466;BME280;24244;51.950;5.902;2022-09-03T00:45:15;101081.56;;;19.15;44.90
38466;BME280;24244;51.950;5.902;2022-09-03T00:47:54;101072.06;;;19.12;44.83
38466;BME280;24244;51.950;5.902;2022-09-03T00:50:32;101073.38;;;19.10;45.02
38466;BME280;24244;51.950;5.902;2022-09-03T00:53:04;101070.09;;;19.08;44.98
38466;BME280;24244;51.950;5.902;2022-09-03T00:55:42;101067.03;;;19.04;45.08
38466;BME280;24244;51.950;5.902;2022-09-03T00:58:25;101069.38;;;19.01;45.16
38466;BME280;24244;51.950;5.902;2022-09-03T01:00:54;101072.53;;;18.98;45.17
38466;BME280;24244;51.950;5.902;2022-09-03T01:03:29;101062.47;;;18.93;45.27
38466;BME280;24244;51.950;5.902;2022-09-03T01:06:10;101065.41;;;18.92;45.15
38466;BME280;24244;51.950;5.902;2022-09-03T01:08:50;101065.63;;;18.90;45.21
38466;BME280;24244;51.950;5.902;2022-09-03T01:11:25;101061.53;;;18.88;45.13
38466;BME280;24244;51.950;5.902;2022-09-03T01:13:57;101070.31;;;18.83;45.27
38466;BME280;24244;51.950;5.902;2022-09-03T01:16:31;101063.53;;;18.81;45.29
38466;BME280;24244;51.950;5.902;2022-09-03T01:19:07;101069.38;;;18.77;45.41
38466;BME280;24244;51.950;5.902;2022-09-03T01:21:55;101075.22;;;18.74;45.50
38466;BME280;24244;51.950;5.902;2022-09-03T01:25:03;101082.94;;;18.71;45.57
38466;BME280;24244;51.950;5.902;2022-09-03T01:27:40;101076.38;;;18.67;45.55
38466;BME280;24244;51.950;5.902;2022-09-03T01:30:12;101080.34;;;18.64;45.74
38466;BME280;24244;51.950;5.902;2022-09-03T01:32:45;101078.94;;;18.62;45.80
38466;BME280;24244;51.950;5.902;2022-09-03T01:35:21;101078.38;;;18.60;45.65
38466;BME280;24244;51.950;5.902;2022-09-03T01:38:00;101081.69;;;18.55;46.00
38466;BME280;24244;51.950;5.902;2022-09-03T01:40:35;101084.88;;;18.52;45.84
38466;BME280;24244;51.950;5.902;2022-09-03T01:46:02;101080.97;;;18.48;45.77
38466;BME280;24244;51.950;5.902;2022-09-03T01:48:41;101076.91;;;18.46;45.89
38466;BME280;24244;51.950;5.902;2022-09-03T01:51:15;101080.41;;;18.46;46.15
38466;BME280;24244;51.950;5.902;2022-09-03T01:54:19;101075.03;;;18.46;46.09
38466;BME280;24244;51.950;5.902;2022-09-03T01:57:03;101084.38;;;18.44;46.09
38466;BME280;24244;51.950;5.902;2022-09-03T01:59:36;101081.09;;;18.42;46.13
38466;BME280;24244;51.950;5.902;2022-09-03T02:02:09;101074.06;;;18.40;46.16
38466;BME280;24244;51.950;5.902;2022-09-03T02:04:55;101081.78;;;18.37;46.08
38466;BME280;24244;51.950;5.902;2022-09-03T02:07:23;101077.91;;;18.33;46.29
38466;BME280;24244;51.950;5.902;2022-09-03T02:09:49;101081.66;;;18.32;46.44
38466;BME280;24244;51.950;5.902;2022-09-03T02:12:16;101079.19;;;18.30;46.38
38466;BME280;24244;51.950;5.902;2022-09-03T02:14:44;101076.72;;;18.29;46.53
38466;BME280;24244;51.950;5.902;2022-09-03T02:17:12;101075.06;;;18.28;46.43
38466;BME280;24244;51.950;5.902;2022-09-03T02:19:38;101081.28;;;18.28;46.60
38466;BME280;24244;51.950;5.902;2022-09-03T02:22:04;101078.00;;;18.26;46.52
38466;BME280;24244;51.950;5.902;2022-09-03T02:24:29;101073.69;;;18.25;46.53
38466;BME280;24244;51.950;5.902;2022-09-03T02:26:55;101074.72;;;18.24;46.64
38466;BME280;24244;51.950;5.902;2022-09-03T02:29:21;101081.16;;;18.23;46.77
38466;BME280;24244;51.950;5.902;2022-09-03T02:31:48;101066.28;;;18.21;46.81
38466;BME280;24244;51.950;5.902;2022-09-03T02:34:15;101066.50;;;18.19;46.77
38466;BME280;24244;51.950;5.902;2022-09-03T02:36:43;101069.19;;;18.19;46.84
38466;BME280;24244;51.950;5.902;2022-09-03T02:39:10;101068.41;;;18.19;46.79
38466;BME280;24244;51.950;5.902;2022-09-03T02:41:36;101070.25;;;18.18;46.89
38466;BME280;24244;51.950;5.902;2022-09-03T02:44:05;101071.09;;;18.19;47.03
38466;BME280;24244;51.950;5.902;2022-09-03T02:46:36;101068.63;;;18.17;46.96
38466;BME280;24244;51.950;5.902;2022-09-03T02:49:03;101065.09;;;18.17;46.66
38466;BME280;24244;51.950;5.902;2022-09-03T02:51:34;101066.16;;;18.16;47.05
38466;BME280;24244;51.950;5.902;2022-09-03T02:54:00;101065.31;;;18.15;46.91
38466;BME280;24244;51.950;5.902;2022-09-03T02:56:25;101064.72;;;18.13;46.83
38466;BME280;24244;51.950;5.902;2022-09-03T02:58:52;101067.41;;;18.13;47.05
38466;BME280;24244;51.950;5.902;2022-09-03T03:01:17;101069.53;;;18.11;47.17
38466;BME280;24244;51.950;5.902;2022-09-03T03:03:43;101061.69;;;18.10;47.12
38466;BME280;24244;51.950;5.902;2022-09-03T03:06:09;101070.81;;;18.09;47.07
38466;BME280;24244;51.950;5.902;2022-09-03T03:08:36;101056.75;;;18.07;47.04
38466;BME280;24244;51.950;5.902;2022-09-03T03:11:02;101060.47;;;18.06;47.09
38466;BME280;24244;51.950;5.902;2022-09-03T03:13:30;101063.44;;;18.04;47.04
38466;BME280;24244;51.950;5.902;2022-09-03T03:15:56;101056.84;;;18.00;47.30
38466;BME280;24244;51.950;5.902;2022-09-03T03:18:22;101055.41;;;17.97;47.18
38466;BME280;24244;51.950;5.902;2022-09-03T03:20:48;101057.31;;;17.97;47.17
38466;BME280;24244;51.950;5.902;2022-09-03T03:23:13;101062.91;;;17.95;47.07
38466;BME280;24244;51.950;5.902;2022-09-03T03:25:40;101056.94;;;17.93;47.28
38466;BME280;24244;51.950;5.902;2022-09-03T03:28:06;101065.22;;;17.92;47.20
38466;BME280;24244;51.950;5.902;2022-09-03T03:30:35;101064.19;;;17.93;47.63
38466;BME280;24244;51.950;5.902;2022-09-03T03:33:01;101061.97;;;17.90;47.54
38466;BME280;24244;51.950;5.902;2022-09-03T03:35:27;101065.69;;;17.89;47.67
38466;BME280;24244;51.950;5.902;2022-09-03T03:37:52;101067.78;;;17.87;47.43
38466;BME280;24244;51.950;5.902;2022-09-03T03:40:18;101071.50;;;17.86;47.37
38466;BME280;24244;51.950;5.902;2022-09-03T03:42:45;101060.41;;;17.82;47.65
38466;BME280;24244;51.950;5.902;2022-09-03T03:45:11;101062.50;;;17.80;47.59
38466;BME280;24244;51.950;5.902;2022-09-03T03:47:36;101054.84;;;17.77;47.55
38466;BME280;24244;51.950;5.902;2022-09-03T03:50:03;101059.66;;;17.75;47.75
38466;BME280;24244;51.950;5.902;2022-09-03T03:52:29;101052.63;;;17.74;47.60
38466;BME280;24244;51.950;5.902;2022-09-03T03:54:54;101060.09;;;17.72;47.73
38466;BME280;24244;51.950;5.902;2022-09-03T03:57:21;101057.63;;;17.71;47.94
38466;BME280;24244;51.950;5.902;2022-09-03T03:59:49;101055.16;;;17.69;47.70
38466;BME280;24244;51.950;5.902;2022-09-03T04:02:15;101054.59;;;17.67;47.79
38466;BME280;24244;51.950;5.902;2022-09-03T04:04:41;101057.50;;;17.66;47.94
38466;BME280;24244;51.950;5.902;2022-09-03T04:07:07;101047.19;;;17.63;47.94
38466;BME280;24244;51.950;5.902;2022-09-03T04:09:33;101046.56;;;17.60;48.13
38466;BME280;24244;51.950;5.902;2022-09-03T04:11:59;101052.16;;;17.59;48.07
38466;BME280;24244;51.950;5.902;2022-09-03T04:14:25;101051.34;;;17.58;48.05
38466;BME280;24244;51.950;5.902;2022-09-03T04:16:53;101047.47;;;17.54;48.08
38466;BME280;24244;51.950;5.902;2022-09-03T04:19:19;101055.75;;;17.53;48.16
38466;BME280;24244;51.950;5.902;2022-09-03T04:21:44;101053.91;;;17.53;48.17
38466;BME280;24244;51.950;5.902;2022-09-03T04:24:10;101054.94;;;17.52;47.95
38466;BME280;24244;51.950;5.902;2022-09-03T04:26:36;101052.47;;;17.51;48.26
38466;BME280;24244;51.950;5.902;2022-09-03T04:29:03;101046.28;;;17.50;48.15
38466;BME280;24244;51.950;5.902;2022-09-03T04:31:29;101050.22;;;17.48;48.35
38466;BME280;24244;51.950;5.902;2022-09-03T04:33:56;101045.09;;;17.46;48.22
38466;BME280;24244;51.950;5.902;2022-09-03T04:36:24;101042.63;;;17.45;48.49
38466;BME280;24244;51.950;5.902;2022-09-03T04:38:51;101045.53;;;17.43;48.64
38466;BME280;24244;51.950;5.902;2022-09-03T04:41:19;101048.06;;;17.38;48.62
38466;BME280;24244;51.950;5.902;2022-09-03T04:43:45;101039.88;;;17.33;48.57
38466;BME280;24244;51.950;5.902;2022-09-03T04:46:13;101040.91;;;17.32;48.59
38466;BME280;24244;51.950;5.902;2022-09-03T04:48:39;101034.94;;;17.30;48.77
38466;BME280;24244;51.950;5.902;2022-09-03T04:51:07;101038.66;;;17.29;48.68
38466;BME280;24244;51.950;5.902;2022-09-03T04:53:33;101036.44;;;17.26;48.90
38466;BME280;24244;51.950;5.902;2022-09-03T04:55:59;101042.84;;;17.25;48.67
38466;BME280;24244;51.950;5.902;2022-09-03T04:58:25;101042.84;;;17.25;48.64
38466;BME280;24244;51.950;5.902;2022-09-03T05:00:50;101043.50;;;17.20;48.75
38466;BME280;24244;51.950;5.902;2022-09-03T05:03:16;101043.50;;;17.20;49.06
38466;BME280;24244;51.950;5.902;2022-09-03T05:05:42;101041.06;;;17.19;48.94
38466;BME280;24244;51.950;5.902;2022-09-03T05:08:08;101039.78;;;17.21;49.21
38466;BME280;24244;51.950;5.902;2022-09-03T05:10:34;101044.53;;;17.19;49.25
38466;BME280;24244;51.950;5.902;2022-09-03T05:13:01;101046.19;;;17.20;49.27
38466;BME280;24244;51.950;5.902;2022-09-03T05:15:28;101046.44;;;17.19;49.30
38466;BME280;24244;51.950;5.902;2022-09-03T05:17:57;101040.44;;;17.17;49.21
38466;BME280;24244;51.950;5.902;2022-09-03T05:20:23;101045.00;;;17.16;49.56
38466;BME280;24244;51.950;5.902;2022-09-03T05:22:49;101054.09;;;17.15;49.72
38466;BME280;24244;51.950;5.902;2022-09-03T05:25:16;101062.97;;;17.16;49.62
38466;BME280;24244;51.950;5.902;2022-09-03T05:27:42;101056.16;;;17.13;49.53
38466;BME280;24244;51.950;5.902;2022-09-03T05:30:08;101059.91;;;17.12;49.67
38466;BME280;24244;51.950;5.902;2022-09-03T05:32:34;101059.09;;;17.12;49.73
38466;BME280;24244;51.950;5.902;2022-09-03T05:34:59;101052.91;;;17.11;49.89
38466;BME280;24244;51.950;5.902;2022-09-03T05:37:25;101047.97;;;17.08;49.70
38466;BME280;24244;51.950;5.902;2022-09-03T05:39:50;101055.19;;;17.08;49.81
38466;BME280;24244;51.950;5.902;2022-09-03T05:42:17;101050.66;;;17.08;50.01
38466;BME280;24244;51.950;5.902;2022-09-03T05:44:43;101047.97;;;17.08;49.80
38466;BME280;24244;51.950;5.902;2022-09-03T05:47:08;101052.31;;;17.09;49.91
38466;BME280;24244;51.950;5.902;2022-09-03T05:49:34;101055.81;;;17.10;49.80
38466;BME280;24244;51.950;5.902;2022-09-03T05:51:59;101049.63;;;17.09;49.84
38466;BME280;24244;51.950;5.902;2022-09-03T05:54:25;101052.91;;;17.11;49.84
38466;BME280;24244;51.950;5.902;2022-09-03T05:56:50;101048.34;;;17.12;49.92
38466;BME280;24244;51.950;5.902;2022-09-03T05:59:17;101053.72;;;17.12;50.03
38466;BME280;24244;51.950;5.902;2022-09-03T06:01:44;101056.16;;;17.13;50.30
38466;BME280;24244;51.950;5.902;2022-09-03T06:04:12;101055.97;;;17.15;50.22
38466;BME280;24244;51.950;5.902;2022-09-03T06:06:40;101058.63;;;17.15;50.16
38466;BME280;24244;51.950;5.902;2022-09-03T06:09:08;101055.75;;;17.16;50.04
38466;BME280;24244;51.950;5.902;2022-09-03T06:11:36;101066.28;;;17.18;50.29
38466;BME280;24244;51.950;5.902;2022-09-03T06:14:04;101059.84;;;17.19;50.31
38466;BME280;24244;51.950;5.902;2022-09-03T06:16:33;101061.47;;;17.20;50.19
38466;BME280;24244;51.950;5.902;2022-09-03T06:18:58;101061.03;;;17.23;50.42
38466;BME280;24244;51.950;5.902;2022-09-03T06:21:24;101061.88;;;17.23;50.19
38466;BME280;24244;51.950;5.902;2022-09-03T06:23:52;101062.69;;;17.24;50.33
38466;BME280;24244;51.950;5.902;2022-09-03T06:26:18;101054.41;;;17.26;50.30
38466;BME280;24244;51.950;5.902;2022-09-03T06:28:45;101060.63;;;17.26;50.43
38466;BME280;24244;51.950;5.902;2022-09-03T06:31:13;101064.91;;;17.27;50.22
38466;BME280;24244;51.950;5.902;2022-09-03T06:33:40;101065.53;;;17.29;50.19
38466;BME280;24244;51.950;5.902;2022-09-03T06:36:11;101057.25;;;17.31;50.06
38466;BME280;24244;51.950;5.902;2022-09-03T06:38:38;101057.59;;;17.34;50.08
38466;BME280;24244;51.950;5.902;2022-09-03T06:41:05;101064.63;;;17.35;50.11
38466;BME280;24244;51.950;5.902;2022-09-03T06:43:32;101068.75;;;17.38;49.93
38466;BME280;24244;51.950;5.902;2022-09-03T06:45:59;101071.22;;;17.39;49.64
38466;BME280;24244;51.950;5.902;2022-09-03T06:48:26;101060.00;;;17.42;49.75
38466;BME280;24244;51.950;5.902;2022-09-03T06:50:57;101064.13;;;17.45;49.88
38466;BME280;24244;51.950;5.902;2022-09-03T06:53:24;101063.66;;;17.48;49.97
38466;BME280;24244;51.950;5.902;2022-09-03T06:55:55;101061.56;;;17.50;49.71
38466;BME280;24244;51.950;5.902;2022-09-03T06:58:21;101061.34;;;17.51;49.83
38466;BME280;24244;51.950;5.902;2022-09-03T07:00:47;101067.91;;;17.55;49.94
38466;BME280;24244;51.950;5.902;2022-09-03T07:03:14;101063.97;;;17.58;49.89
38466;BME280;24244;51.950;5.902;2022-09-03T07:05:39;101059.00;;;17.62;49.69
38466;BME280;24244;51.950;5.902;2022-09-03T07:08:06;101062.06;;;17.65;49.88
38466;BME280;24244;51.950;5.902;2022-09-03T07:10:35;101066.75;;;17.70;50.03
38466;BME280;24244;51.950;5.902;2022-09-03T07:13:01;101077.06;;;17.73;50.01
38466;BME280;24244;51.950;5.902;2022-09-03T07:15:27;101066.91;;;17.75;50.00
38466;BME280;24244;51.950;5.902;2022-09-03T07:17:52;101070.78;;;17.79;49.95
38466;BME280;24244;51.950;5.902;2022-09-03T07:20:18;101069.03;;;17.84;50.07
38466;BME280;24244;51.950;5.902;2022-09-03T07:22:44;101076.44;;;17.89;50.22
38466;BME280;24244;51.950;5.902;2022-09-03T07:25:11;101073.06;;;17.93;49.73
38466;BME280;24244;51.950;5.902;2022-09-03T07:27:37;101070.28;;;18.00;49.99
38466;BME280;24244;51.950;5.902;2022-09-03T07:30:03;101078.28;;;18.07;50.17
38466;BME280;24244;51.950;5.902;2022-09-03T07:32:34;101071.41;;;18.11;50.38
38466;BME280;24244;51.950;5.902;2022-09-03T07:35:05;101074.44;;;18.14;50.12
38466;BME280;24244;51.950;5.902;2022-09-03T07:37:31;101063.25;;;18.17;49.95
38466;BME280;24244;51.950;5.902;2022-09-03T07:39:57;101073.09;;;18.23;49.80
38466;BME280;24244;51.950;5.902;2022-09-03T07:42:24;101069.69;;;18.28;50.09
38466;BME280;24244;51.950;5.902;2022-09-03T07:44:53;101064.69;;;18.31;50.20
38466;BME280;24244;51.950;5.902;2022-09-03T07:47:18;101062.94;;;18.37;50.21
38466;BME280;24244;51.950;5.902;2022-09-03T07:49:44;101059.81;;;18.40;50.17
38466;BME280;24244;51.950;5.902;2022-09-03T07:52:10;101065.31;;;18.45;49.91
38466;BME280;24244;51.950;5.902;2022-09-03T07:54:36;101059.22;;;18.50;50.02
38466;BME280;24244;51.950;5.902;2022-09-03T07:57:01;101061.00;;;18.56;49.92
38466;BME280;24244;51.950;5.902;2022-09-03T07:59:28;101058.47;;;18.61;49.94
38466;BME280;24244;51.950;5.902;2022-09-03T08:01:54;101060.47;;;18.65;50.02
38466;BME280;24244;51.950;5.902;2022-09-03T08:04:19;101062.22;;;18.71;50.10
38466;BME280;24244;51.950;5.902;2022-09-03T08:06:46;101066.91;;;18.76;49.70
38466;BME280;24244;51.950;5.902;2022-09-03T08:09:12;101053.56;;;18.81;49.34
38466;BME280;24244;51.950;5.902;2022-09-03T08:11:40;101053.22;;;18.89;49.16
38466;BME280;24244;51.950;5.902;2022-09-03T08:14:07;101053.13;;;18.96;49.01
38466;BME280;24244;51.950;5.902;2022-09-03T08:16:36;101058.94;;;19.04;48.95
38466;BME280;24244;51.950;5.902;2022-09-03T08:19:03;101062.13;;;19.13;48.44
38466;BME280;24244;51.950;5.902;2022-09-03T08:21:29;101064.47;;;19.21;48.50
38466;BME280;24244;51.950;5.902;2022-09-03T08:23:56;101061.63;;;19.28;48.49
38466;BME280;24244;51.950;5.902;2022-09-03T08:26:28;101066.09;;;19.34;48.81
38466;BME280;24244;51.950;5.902;2022-09-03T08:28:55;101068.66;;;19.40;48.57
38466;BME280;24244;51.950;5.902;2022-09-03T08:31:22;101062.09;;;19.48;47.95
38466;BME280;24244;51.950;5.902;2022-09-03T08:33:50;101057.75;;;19.59;47.48
38466;BME280;24244;51.950;5.902;2022-09-03T08:36:18;101066.31;;;19.67;46.98
38466;BME280;24244;51.950;5.902;2022-09-03T08:38:45;101064.03;;;19.76;46.78
38466;BME280;24244;51.950;5.902;2022-09-03T08:41:12;101062.38;;;19.86;46.39
38466;BME280;24244;51.950;5.902;2022-09-03T08:43:55;101064.19;;;19.98;45.99
38466;BME280;24244;51.950;5.902;2022-09-03T08:46:35;101074.59;;;20.06;46.25
38466;BME280;24244;51.950;5.902;2022-09-03T08:49:07;101068.00;;;20.13;45.97
38466;BME280;24244;51.950;5.902;2022-09-03T08:51:36;101067.69;;;20.26;45.71
38466;BME280;24244;51.950;5.902;2022-09-03T08:54:06;101065.81;;;20.39;45.28
38466;BME280;24244;51.950;5.902;2022-09-03T08:56:36;101063.50;;;20.47;45.37
38466;BME280;24244;51.950;5.902;2022-09-03T08:59:03;101069.09;;;20.57;45.43
38466;BME280;24244;51.950;5.902;2022-09-03T09:01:37;101062.47;;;20.65;45.07
38466;BME280;24244;51.950;5.902;2022-09-03T09:04:17;101062.06;;;20.73;45.11
38466;BME280;24244;51.950;5.902;2022-09-03T09:06:52;101054.84;;;20.79;45.14
38466;BME280;24244;51.950;5.902;2022-09-03T09:09:27;101054.91;;;20.84;45.07
38466;BME280;24244;51.950;5.902;2022-09-03T09:12:00;101060.75;;;20.92;45.09
38466;BME280;24244;51.950;5.902;2022-09-03T09:14:33;101054.34;;;20.98;45.00
38466;BME280;24244;51.950;5.902;2022-09-03T09:17:10;101054.75;;;21.07;44.77
38466;BME280;24244;51.950;5.902;2022-09-03T09:19:51;101055.16;;;21.16;44.32
38466;BME280;24244;51.950;5.902;2022-09-03T09:22:24;101052.06;;;21.24;44.32
38466;BME280;24244;51.950;5.902;2022-09-03T09:24:53;101043.75;;;21.30;44.05
38466;BME280;24244;51.950;5.902;2022-09-03T09:27:21;101044.38;;;21.37;44.20
38466;BME280;24244;51.950;5.902;2022-09-03T09:29:49;101050.97;;;21.46;43.88
38466;BME280;24244;51.950;5.902;2022-09-03T09:32:18;101044.88;;;21.56;44.03
38466;BME280;24244;51.950;5.902;2022-09-03T09:34:45;101053.63;;;21.63;44.06
38466;BME280;24244;51.950;5.902;2022-09-03T09:37:13;101056.97;;;21.70;43.81
38466;BME280;24244;51.950;5.902;2022-09-03T09:39:40;101053.50;;;21.75;44.01
38466;BME280;24244;51.950;5.902;2022-09-03T09:42:20;101055.75;;;21.83;43.51
38466;BME280;24244;51.950;5.902;2022-09-03T09:44:46;101056.38;;;21.90;43.53
38466;BME280;24244;51.950;5.902;2022-09-03T09:47:15;101053.25;;;21.98;42.90
38466;BME280;24244;51.950;5.902;2022-09-03T09:49:52;101058.50;;;22.10;42.71
38466;BME280;24244;51.950;5.902;2022-09-03T09:52:18;101052.91;;;22.16;43.12
38466;BME280;24244;51.950;5.902;2022-09-03T09:54:46;101048.66;;;22.25;42.92
38466;BME280;24244;51.950;5.902;2022-09-03T09:57:14;101043.84;;;22.33;42.89
38466;BME280;24244;51.950;5.902;2022-09-03T09:59:42;101047.16;;;22.40;43.08
38466;BME280;24244;51.950;5.902;2022-09-03T10:02:11;101050.47;;;22.47;42.71
38466;BME280;24244;51.950;5.902;2022-09-03T10:04:38;101047.88;;;22.57;42.38
38466;BME280;24244;51.950;5.902;2022-09-03T10:07:20;101050.91;;;22.65;42.48
38466;BME280;24244;51.950;5.902;2022-09-03T10:09:57;101048.00;;;22.72;42.40
38466;BME280;24244;51.950;5.902;2022-09-03T10:12:25;101049.97;;;22.82;42.28
38466;BME280;24244;51.950;5.902;2022-09-03T10:14:56;101047.59;;;22.90;42.13
38466;BME280;24244;51.950;5.902;2022-09-03T10:17:28;101037.88;;;22.94;42.11
38466;BME280;24244;51.950;5.902;2022-09-03T10:19:59;101032.50;;;23.04;42.01
38466;BME280;24244;51.950;5.902;2022-09-03T10:22:53;101032.03;;;23.18;41.18
38466;BME280;24244;51.950;5.902;2022-09-03T10:25:20;101030.22;;;23.28;40.94
38466;BME280;24244;51.950;5.902;2022-09-03T10:27:45;101037.03;;;23.36;40.92
38466;BME280;24244;51.950;5.902;2022-09-03T10:30:11;101035.41;;;23.45;40.79
38466;BME280;24244;51.950;5.902;2022-09-03T10:32:45;101040.38;;;23.53;40.52
38466;BME280;24244;51.950;5.902;2022-09-03T10:35:22;101026.31;;;23.61;40.63
38466;BME280;24244;51.950;5.902;2022-09-03T10:37:59;101032.84;;;23.70;40.12
38466;BME280;24244;51.950;5.902;2022-09-03T10:40:34;101021.22;;;23.80;40.04
38466;BME280;24244;51.950;5.902;2022-09-03T10:43:12;101025.84;;;23.90;39.80
38466;BME280;24244;51.950;5.902;2022-09-03T10:45:47;101027.22;;;23.97;39.48
38466;BME280;24244;51.950;5.902;2022-09-03T10:48:35;101028.84;;;24.03;39.09
38466;BME280;24244;51.950;5.902;2022-09-03T10:51:05;101024.25;;;24.09;38.95
38466;BME280;24244;51.950;5.902;2022-09-03T10:53:48;101016.66;;;24.16;39.11
38466;BME280;24244;51.950;5.902;2022-09-03T10:56:19;101021.88;;;24.23;39.03
38466;BME280;24244;51.950;5.902;2022-09-03T10:58:58;101017.00;;;24.30;39.00
38466;BME280;24244;51.950;5.902;2022-09-03T11:01:32;101018.06;;;24.39;38.79
38466;BME280;24244;51.950;5.902;2022-09-03T11:04:16;101022.13;;;24.46;38.70
38466;BME280;24244;51.950;5.902;2022-09-03T11:06:49;101019.97;;;24.53;38.32
38466;BME280;24244;51.950;5.902;2022-09-03T11:09:20;101023.47;;;24.59;38.45
38466;BME280;24244;51.950;5.902;2022-09-03T11:11:51;101016.16;;;24.65;38.41
38466;BME280;24244;51.950;5.902;2022-09-03T11:14:29;101020.75;;;24.74;38.31
38466;BME280;24244;51.950;5.902;2022-09-03T11:16:59;101019.38;;;24.82;38.35
38466;BME280;24244;51.950;5.902;2022-09-03T11:19:33;101009.03;;;24.89;38.32
38466;BME280;24244;51.950;5.902;2022-09-03T11:22:00;101012.88;;;24.98;38.05
38466;BME280;24244;51.950;5.902;2022-09-03T11:24:29;101009.88;;;25.05;37.76
38466;BME280;24244;51.950;5.902;2022-09-03T11:27:03;101009.03;;;25.09;38.03
38466;BME280;24244;51.950;5.902;2022-09-03T11:29:33;101007.91;;;25.15;38.01
38466;BME280;24244;51.950;5.902;2022-09-03T11:32:04;100998.66;;;25.21;37.87
38466;BME280;24244;51.950;5.902;2022-09-03T11:34:44;100993.19;;;25.26;37.78
38466;BME280;24244;51.950;5.902;2022-09-03T11:37:17;100995.63;;;25.33;38.05
38466;BME280;24244;51.950;5.902;2022-09-03T11:39:51;100991.78;;;25.39;38.14
38466;BME280;24244;51.950;5.902;2022-09-03T11:42:33;100992.28;;;25.46;37.70
38466;BME280;24244;51.950;5.902;2022-09-03T11:45:11;100996.34;;;25.54;37.41
38466;BME280;24244;51.950;5.902;2022-09-03T11:47:40;100989.81;;;25.60;37.52
38466;BME280;24244;51.950;5.902;2022-09-03T11:50:14;100986.50;;;25.68;37.27
38466;BME280;24244;51.950;5.902;2022-09-03T11:52:41;100990.00;;;25.73;36.94
38466;BME280;24244;51.950;5.902;2022-09-03T11:55:08;100982.59;;;25.79;36.78
38466;BME280;24244;51.950;5.902;2022-09-03T11:57:39;100984.22;;;25.85;36.51
38466;BME280;24244;51.950;5.902;2022-09-03T12:00:07;100985.81;;;25.91;36.77
38466;BME280;24244;51.950;5.902;2022-09-03T12:02:36;100986.59;;;25.97;36.73
38466;BME280;24244;51.950;5.902;2022-09-03T12:05:23;100990.63;;;26.04;36.47
38466;BME280;24244;51.950;5.902;2022-09-03T12:08:17;100989.22;;;26.12;36.16
38466;BME280;24244;51.950;5.902;2022-09-03T12:10:52;100983.47;;;26.13;35.82
38466;BME280;24244;51.950;5.902;2022-09-03T12:13:35;100988.34;;;26.17;35.96
38466;BME280;24244;51.950;5.902;2022-09-03T12:16:21;100988.31;;;26.22;35.65
38466;BME280;24244;51.950;5.902;2022-09-03T12:18:50;100977.69;;;26.25;35.94
38466;BME280;24244;51.950;5.902;2022-09-03T12:21:19;100980.06;;;26.32;35.87
38466;BME280;24244;51.950;5.902;2022-09-03T12:23:47;100979.75;;;26.38;35.92
38466;BME280;24244;51.950;5.902;2022-09-03T12:26:16;100990.31;;;26.45;35.85
38466;BME280;24244;51.950;5.902;2022-09-03T12:28:45;100982.13;;;26.50;35.49
38466;BME280;24244;51.950;5.902;2022-09-03T12:31:15;100979.06;;;26.57;35.34
38466;BME280;24244;51.950;5.902;2022-09-03T12:33:50;100983.38;;;26.58;35.03
38466;BME280;24244;51.950;5.902;2022-09-03T12:36:18;100980.16;;;26.56;35.03
38466;BME280;24244;51.950;5.902;2022-09-03T12:38:44;100988.03;;;26.57;35.27
38466;BME280;24244;51.950;5.902;2022-09-03T12:41:24;100984.97;;;26.64;35.00
38466;BME280;24244;51.950;5.902;2022-09-03T12:43:53;100980.28;;;26.69;35.33
38466;BME280;24244;51.950;5.902;2022-09-03T12:46:22;100983.47;;;26.76;35.42
38466;BME280;24244;51.950;5.902;2022-09-03T12:48:53;100983.97;;;26.83;35.44
38466;BME280;24244;51.950;5.902;2022-09-03T12:51:18;100976.28;;;26.91;35.26
38466;BME280;24244;51.950;5.902;2022-09-03T12:53:46;100981.13;;;26.94;35.10
38466;BME280;24244;51.950;5.902;2022-09-03T12:56:12;100977.56;;;26.98;35.33
38466;BME280;24244;51.950;5.902;2022-09-03T12:58:46;100982.72;;;27.00;34.84
38466;BME280;24244;51.950;5.902;2022-09-03T13:01:17;100964.94;;;27.02;34.78
38466;BME280;24244;51.950;5.902;2022-09-03T13:03:48;100965.19;;;27.06;34.76
38466;BME280;24244;51.950;5.902;2022-09-03T13:06:18;100975.22;;;27.10;34.70
38466;BME280;24244;51.950;5.902;2022-09-03T13:08:48;100965.13;;;27.11;34.76